Froeybanken — LJML — position and weather

sailwx.info

Track history (hours):
 
Tides and Currents Weather Stations Pressure Air Temp Water Temp Dewpoint Dewpoint Depression Visibility Wind Speed Wind Dir Waves Ship Positions

Froeybanken

Last reported at 2016-Feb-05 23:33 UTC. Time now 2016-Feb-12 20:29 UTC.
Position N 63°31' E 009°09'.

Length 22 m; draft 3.6 m.

Type: Fishing. MMSI: 257470500.

Date/timePositionNaut miles runAvg speedWind from/ knotsBaromVisibWave heightAir tempDewpointWater temp
2016-Feb-05 23:33N 63°31' E 009°09'6 6.5
2016-Feb-05 22:33N 63°36' E 009°16'7 6.9
2016-Feb-05 21:33N 63°42' E 009°24'76 6.9
2016-Feb-05 10:31N 64°46' E 011°02'7 7.4
2016-Feb-05 09:33N 64°51' E 011°13'3 3.2
2016-Feb-05 08:33N 64°53' E 011°19'8 7.6
2016-Feb-05 07:33N 64°58' E 011°33'8 7.6
2016-Feb-05 06:33N 65°03' E 011°45'8 7.8
2016-Feb-05 05:32N 65°11' E 011°51'8 7.8
2016-Feb-05 04:33N 65°18' E 011°59'79 7.8
2016-Feb-04 18:31N 66°32' E 012°60'  
Track history (hours):
 
Tides and Currents Weather Stations Pressure Air Temp Water Temp Dewpoint Dewpoint Depression Visibility Wind Speed Wind Dir Waves Ship Positions

Froeybanken

Last reported at 2016-Feb-05 23:33 UTC. Time now 2016-Feb-12 20:29 UTC.
Position N 63°31' E 009°09'.

Length 22 m; draft 3.6 m.

Type: Fishing. MMSI: 257470500.

Date/timePositionNaut miles runAvg speedWind from/ knotsBaromVisibWave heightAir tempDewpointWater temp
2016-Feb-05 23:33N 63°31' E 009°09'6 6.5
2016-Feb-05 22:33N 63°36' E 009°16'7 6.9
2016-Feb-05 21:33N 63°42' E 009°24'76 6.9
2016-Feb-05 10:31N 64°46' E 011°02'7 7.4
2016-Feb-05 09:33N 64°51' E 011°13'3 3.2
2016-Feb-05 08:33N 64°53' E 011°19'8 7.6
2016-Feb-05 07:33N 64°58' E 011°33'8 7.6
2016-Feb-05 06:33N 65°03' E 011°45'8 7.8
2016-Feb-05 05:32N 65°11' E 011°51'8 7.8
2016-Feb-05 04:33N 65°18' E 011°59'79 7.8
2016-Feb-04 18:31N 66°32' E 012°60'  

Dump ship's entire track history